createdAt,value
2018-11-21T00:00:42.702Z,23.09
2018-11-21T00:03:09.397Z,23.01
2018-11-21T00:05:36.034Z,22.89
2018-11-21T00:08:02.672Z,22.83
2018-11-21T00:10:30.307Z,22.83
2018-11-21T00:12:56.954Z,22.85
2018-11-21T00:15:23.596Z,22.93
2018-11-21T00:17:50.243Z,22.96
2018-11-21T00:20:16.871Z,22.95
2018-11-21T00:22:43.523Z,23.02
2018-11-21T00:25:10.159Z,23.03
2018-11-21T00:27:36.797Z,23.05
2018-11-21T00:30:03.490Z,23.10
2018-11-21T00:32:30.125Z,23.09
2018-11-21T00:34:56.831Z,23.08
2018-11-21T00:37:23.475Z,23.10
2018-11-21T00:39:50.120Z,23.15
2018-11-21T00:42:16.774Z,23.14
2018-11-21T00:44:43.416Z,23.14
2018-11-21T00:47:10.132Z,23.12
2018-11-21T00:49:36.868Z,23.15
2018-11-21T00:52:03.501Z,23.16
2018-11-21T00:54:30.225Z,23.17
2018-11-21T00:56:56.869Z,23.18
2018-11-21T00:59:23.564Z,23.21
2018-11-21T01:01:50.202Z,23.17
2018-11-21T01:04:16.840Z,23.18
2018-11-21T01:06:43.496Z,23.22
2018-11-21T01:09:10.194Z,23.20
2018-11-21T01:11:36.859Z,23.19
2018-11-21T01:14:03.507Z,23.20
2018-11-21T01:16:30.147Z,23.21
2018-11-21T01:18:56.797Z,23.23
2018-11-21T01:21:25.237Z,23.21
2018-11-21T01:23:50.127Z,23.20
2018-11-21T01:26:16.776Z,23.20
2018-11-21T01:28:43.469Z,23.24
2018-11-21T01:31:10.110Z,23.24
2018-11-21T01:33:36.797Z,23.22
2018-11-21T01:36:03.438Z,23.22
2018-11-21T01:38:30.072Z,23.27
2018-11-21T01:40:56.726Z,23.25
2018-11-21T01:43:23.377Z,23.25
2018-11-21T01:45:50.014Z,23.25
2018-11-21T01:48:16.706Z,23.27
2018-11-21T01:50:43.346Z,23.27
2018-11-21T01:53:09.992Z,23.28
2018-11-21T01:55:36.688Z,23.29
2018-11-21T01:58:03.325Z,23.31
2018-11-21T02:00:29.976Z,23.28
2018-11-21T02:02:56.617Z,23.30
2018-11-21T02:05:23.374Z,23.30
2018-11-21T02:07:50.115Z,23.28
2018-11-21T02:10:16.773Z,23.34
2018-11-21T02:12:43.409Z,23.33
2018-11-21T02:15:10.100Z,23.32
2018-11-21T02:17:36.732Z,23.36
2018-11-21T02:20:03.370Z,23.33
2018-11-21T02:22:30.074Z,23.34
2018-11-21T02:24:56.751Z,23.34
2018-11-21T02:27:23.354Z,23.33
2018-11-21T02:29:49.998Z,23.35
2018-11-21T02:32:16.692Z,23.35
2018-11-21T02:34:43.350Z,23.35
2018-11-21T02:37:10.039Z,23.36
2018-11-21T02:39:36.681Z,23.36
2018-11-21T02:42:03.375Z,23.36
2018-11-21T02:44:30.009Z,23.34
2018-11-21T02:46:56.678Z,23.36
2018-11-21T02:49:23.384Z,23.38
2018-11-21T02:51:50.029Z,23.37
2018-11-21T02:54:16.664Z,23.37
2018-11-21T02:56:44.361Z,23.38
2018-11-21T02:59:09.947Z,23.39
2018-11-21T03:01:36.661Z,23.39
2018-11-21T03:04:04.334Z,23.39
2018-11-21T03:06:30.980Z,23.35
2018-11-21T03:08:57.664Z,23.40
2018-11-21T03:11:24.305Z,23.38
2018-11-21T03:13:53.527Z,23.40
2018-11-21T03:16:20.231Z,23.40
2018-11-21T03:18:46.869Z,23.38
2018-11-21T03:21:13.555Z,23.40
2018-11-21T03:23:40.196Z,23.41
2018-11-21T03:26:06.982Z,23.36
2018-11-21T03:28:33.629Z,23.41
2018-11-21T03:31:00.261Z,23.40
2018-11-21T03:33:26.942Z,23.39
2018-11-21T03:35:53.611Z,23.40
2018-11-21T03:38:20.274Z,23.41
2018-11-21T03:40:46.917Z,23.40
2018-11-21T03:43:13.563Z,23.39
2018-11-21T03:45:40.276Z,23.41
2018-11-21T03:48:06.928Z,23.40
2018-11-21T03:50:33.578Z,23.40
2018-11-21T03:53:00.269Z,23.40
2018-11-21T03:55:26.912Z,23.40
2018-11-21T03:57:53.615Z,23.42
2018-11-21T04:00:20.265Z,23.41
2018-11-21T04:02:46.950Z,23.41
2018-11-21T04:05:13.593Z,23.42
2018-11-21T04:07:40.287Z,23.49
2018-11-21T04:10:06.933Z,23.49
2018-11-21T04:12:33.573Z,23.54
2018-11-21T04:15:00.285Z,23.00
2018-11-21T04:17:26.926Z,22.42
2018-11-21T04:19:53.648Z,22.12
2018-11-21T04:22:20.263Z,22.12
2018-11-21T04:24:46.898Z,22.15
2018-11-21T04:27:13.570Z,21.68
2018-11-21T04:29:40.265Z,21.44
2018-11-21T04:32:06.900Z,21.27
2018-11-21T04:34:33.585Z,21.23
2018-11-21T04:37:00.268Z,21.40
2018-11-21T04:39:26.915Z,21.83
2018-11-21T04:41:53.550Z,22.15
2018-11-21T04:44:20.195Z,22.42
2018-11-21T04:46:46.978Z,22.48
2018-11-21T04:49:13.618Z,22.56
2018-11-21T04:51:40.264Z,22.70
2018-11-21T04:54:06.905Z,22.74
2018-11-21T04:56:33.573Z,22.80
2018-11-21T04:59:00.223Z,22.86
2018-11-21T05:01:26.913Z,22.89
2018-11-21T05:03:53.548Z,22.94
2018-11-21T05:06:20.189Z,22.97
2018-11-21T05:08:46.836Z,22.98
2018-11-21T05:11:13.561Z,23.26
2018-11-21T05:13:40.198Z,23.14
2018-11-21T05:16:06.886Z,23.26
2018-11-21T05:18:33.524Z,23.14
2018-11-21T05:21:00.216Z,23.23
2018-11-21T05:23:26.914Z,23.26
2018-11-21T05:25:53.556Z,23.21
2018-11-21T05:28:20.249Z,23.17
2018-11-21T05:30:46.884Z,23.20
2018-11-21T05:33:13.585Z,23.21
2018-11-21T05:35:40.234Z,23.24
2018-11-21T05:38:06.863Z,23.26
2018-11-21T05:40:33.520Z,23.26
2018-11-21T05:43:00.207Z,23.28
2018-11-21T05:45:26.856Z,23.34
2018-11-21T05:47:53.610Z,23.41
2018-11-21T05:50:20.250Z,23.45
2018-11-21T05:52:46.964Z,23.38
2018-11-21T05:55:13.656Z,23.46
2018-11-21T05:57:40.306Z,23.43
2018-11-21T06:00:06.946Z,23.45
2018-11-21T06:02:33.600Z,23.42
2018-11-21T06:05:00.297Z,23.44
2018-11-21T06:07:26.946Z,23.46
2018-11-21T06:09:53.584Z,23.46
2018-11-21T06:12:20.226Z,23.65
2018-11-21T06:14:46.917Z,23.73
2018-11-21T06:17:13.710Z,23.84
2018-11-21T06:19:40.346Z,23.96
2018-11-21T06:22:07.036Z,23.92
2018-11-21T06:24:33.688Z,23.78
2018-11-21T06:27:00.343Z,23.78
2018-11-21T06:29:26.980Z,23.73
2018-11-21T06:31:53.660Z,23.83
2018-11-21T06:34:20.300Z,24.00
2018-11-21T06:36:47.008Z,23.92
2018-11-21T06:39:13.646Z,23.91
2018-11-21T06:41:40.307Z,23.84
2018-11-21T06:44:06.976Z,24.02
2018-11-21T06:46:33.678Z,24.02
2018-11-21T06:49:00.315Z,24.25
2018-11-21T06:51:27.068Z,23.90
2018-11-21T06:53:53.767Z,23.91
2018-11-21T06:56:20.418Z,23.94
2018-11-21T06:58:47.201Z,23.85
2018-11-21T07:01:13.968Z,23.92
2018-11-21T07:03:40.611Z,23.87
2018-11-21T07:06:07.327Z,24.11
2018-11-21T07:08:34.018Z,23.86
2018-11-21T07:11:00.666Z,23.79
2018-11-21T07:13:27.375Z,23.76
2018-11-21T07:15:54.022Z,23.75
2018-11-21T07:18:20.712Z,23.89
2018-11-21T07:20:47.426Z,23.88
2018-11-21T07:23:14.067Z,23.85
2018-11-21T07:25:40.768Z,23.81
2018-11-21T07:28:12.951Z,23.89
2018-11-21T07:30:34.165Z,23.87
2018-11-21T07:33:00.805Z,24.05
2018-11-21T07:35:27.503Z,24.02
2018-11-21T07:37:54.160Z,24.05
2018-11-21T07:40:20.843Z,24.09
2018-11-21T07:42:48.569Z,24.37
2018-11-21T07:45:15.296Z,24.36
2018-11-21T07:47:41.942Z,24.02
2018-11-21T07:50:08.601Z,23.98
2018-11-21T07:52:35.250Z,24.08
2018-11-21T07:55:01.893Z,24.27
2018-11-21T07:57:28.595Z,24.03
2018-11-21T07:59:55.229Z,24.12
2018-11-21T08:02:22.082Z,23.95
2018-11-21T08:04:48.786Z,23.76
2018-11-21T08:07:15.591Z,23.66
2018-11-21T08:09:42.329Z,23.63
2018-11-21T08:12:08.972Z,23.62
2018-11-21T08:14:35.630Z,23.76
2018-11-21T08:19:49.170Z,23.94
2018-11-21T08:22:15.825Z,23.96
2018-11-21T08:24:44.644Z,23.90
2018-11-21T08:27:11.338Z,24.09
2018-11-21T08:29:37.988Z,24.01
2018-11-21T08:32:04.654Z,24.51
2018-11-21T08:34:31.311Z,24.37
2018-11-21T08:36:57.959Z,24.26
2018-11-21T08:39:24.655Z,24.31
2018-11-21T08:41:52.365Z,24.28
2018-11-21T08:44:20.280Z,24.32
2018-11-21T08:46:45.665Z,24.35
2018-11-21T08:49:12.327Z,24.24
2018-11-21T08:51:39.016Z,24.22
2018-11-21T08:54:05.665Z,24.28
2018-11-21T08:56:32.582Z,24.35
2018-11-21T08:58:59.014Z,24.34
2018-11-21T09:01:28.522Z,24.31
2018-11-21T09:03:55.230Z,24.35
2018-11-21T09:06:22.016Z,24.35
2018-11-21T09:08:49.101Z,24.38
2018-11-21T09:11:15.782Z,24.34
2018-11-21T09:13:42.536Z,24.38
2018-11-21T09:16:09.269Z,24.38
2018-11-21T09:18:35.960Z,24.63
2018-11-21T09:21:02.735Z,24.37
2018-11-21T09:23:29.425Z,24.38
2018-11-21T09:25:56.118Z,24.66
2018-11-21T09:28:22.799Z,24.47
2018-11-21T09:30:49.599Z,24.37
2018-11-21T09:33:17.471Z,24.38
2018-11-21T09:35:45.342Z,24.47
2018-11-21T09:38:12.006Z,24.17
2018-11-21T09:40:38.820Z,24.26
2018-11-21T09:43:05.516Z,24.28
2018-11-21T09:45:32.226Z,24.34
2018-11-21T09:47:58.873Z,24.35
2018-11-21T09:50:25.523Z,24.43
2018-11-21T09:52:52.182Z,24.53
2018-11-21T09:55:18.851Z,24.29
2018-11-21T09:57:45.537Z,24.61
2018-11-21T10:00:12.326Z,24.57
2018-11-21T10:02:40.089Z,24.31
2018-11-21T10:05:06.727Z,24.17
2018-11-21T10:07:33.364Z,24.15
2018-11-21T10:10:00.006Z,24.07
2018-11-21T10:12:26.645Z,23.97
2018-11-21T10:14:53.283Z,24.01
2018-11-21T10:17:19.937Z,24.02
2018-11-21T10:19:46.593Z,23.95
2018-11-21T10:22:13.235Z,24.01
2018-11-21T10:24:39.885Z,23.97
2018-11-21T10:27:07.011Z,23.99
2018-11-21T10:29:33.654Z,23.96
2018-11-21T10:32:00.782Z,23.94
2018-11-21T10:34:27.630Z,24.07
2018-11-21T10:36:54.352Z,23.99
2018-11-21T10:39:21.000Z,23.90
2018-11-21T10:41:47.646Z,23.96
2018-11-21T10:44:14.363Z,23.93
2018-11-21T10:46:41.103Z,23.97
2018-11-21T10:49:07.846Z,23.97
2018-11-21T10:51:34.474Z,23.98
2018-11-21T10:54:01.149Z,23.98
2018-11-21T10:56:27.946Z,23.98
2018-11-21T10:58:54.595Z,24.09
2018-11-21T11:01:24.406Z,24.07
2018-11-21T11:03:51.075Z,24.01
2018-11-21T11:06:17.874Z,24.00
2018-11-21T11:08:44.557Z,24.01
2018-11-21T11:11:11.204Z,24.05
2018-11-21T11:13:37.877Z,24.05
2018-11-21T11:16:04.850Z,24.11
2018-11-21T11:18:31.580Z,24.03
2018-11-21T11:20:58.650Z,24.02
2018-11-21T11:23:25.372Z,24.07
2018-11-21T11:25:52.024Z,24.07
2018-11-21T11:28:18.678Z,24.08
2018-11-21T11:30:45.316Z,24.04
2018-11-21T11:33:11.958Z,24.01
2018-11-21T11:35:38.667Z,24.14
2018-11-21T11:38:05.375Z,24.20
2018-11-21T11:40:32.071Z,24.16
2018-11-21T11:42:58.728Z,23.98
2018-11-21T11:45:25.433Z,24.14
2018-11-21T11:47:52.166Z,24.24
2018-11-21T11:50:18.839Z,24.46
2018-11-21T11:52:45.490Z,24.23
2018-11-21T11:55:12.136Z,24.26
2018-11-21T11:57:38.902Z,24.33
2018-11-21T12:00:05.567Z,24.41
2018-11-21T12:02:33.423Z,24.72
2018-11-21T12:05:07.929Z,24.50
2018-11-21T12:07:34.618Z,24.25
2018-11-21T12:10:01.993Z,24.24
2018-11-21T12:12:28.632Z,24.31
2018-11-21T12:14:55.420Z,24.35
2018-11-21T12:17:22.075Z,24.27
2018-11-21T12:19:48.901Z,24.23
2018-11-21T12:22:16.770Z,24.22
2018-11-21T12:24:44.456Z,24.22
2018-11-21T12:27:11.371Z,24.36
2018-11-21T12:29:38.372Z,24.27
2018-11-21T12:32:05.150Z,24.28
2018-11-21T12:34:31.880Z,24.37
2018-11-21T12:36:58.544Z,24.32
2018-11-21T12:39:25.225Z,24.29
2018-11-21T12:41:51.868Z,24.29
2018-11-21T12:44:19.029Z,24.32
2018-11-21T12:46:45.697Z,24.51
2018-11-21T12:49:12.426Z,24.44
2018-11-21T12:51:39.079Z,24.47
2018-11-21T12:54:05.837Z,24.42
2018-11-21T12:56:32.476Z,24.53
2018-11-21T12:58:59.127Z,24.43
2018-11-21T13:01:25.785Z,24.51
2018-11-21T13:03:52.446Z,24.59
2018-11-21T13:06:19.086Z,24.70
2018-11-21T13:08:45.780Z,24.70
2018-11-21T13:11:12.448Z,24.79
2018-11-21T13:13:39.093Z,24.81
2018-11-21T13:16:05.737Z,24.98
2018-11-21T13:18:32.398Z,24.68
2018-11-21T13:20:59.139Z,24.60
2018-11-21T13:23:25.802Z,24.69
2018-11-21T13:25:52.493Z,24.65
2018-11-21T13:28:19.254Z,24.92
2018-11-21T13:30:45.926Z,24.95
2018-11-21T13:33:12.632Z,24.87
2018-11-21T13:35:39.269Z,24.87
2018-11-21T13:38:05.927Z,24.73
2018-11-21T13:40:32.625Z,24.71
2018-11-21T13:42:59.280Z,24.81
2018-11-21T13:45:25.956Z,24.55
2018-11-21T13:47:52.594Z,24.56
2018-11-21T13:50:19.286Z,24.53
2018-11-21T13:52:47.308Z,24.58
2018-11-21T13:55:13.783Z,24.67
2018-11-21T13:57:40.436Z,24.76
2018-11-21T14:00:07.126Z,24.67
2018-11-21T14:02:37.791Z,24.73
2018-11-21T14:05:04.436Z,24.78
2018-11-21T14:07:31.142Z,24.64
2018-11-21T14:09:57.780Z,24.65
2018-11-21T14:12:24.451Z,24.62
2018-11-21T14:14:52.209Z,24.68
2018-11-21T14:17:18.846Z,24.51
2018-11-21T14:19:45.502Z,24.65
2018-11-21T14:22:12.163Z,24.65
2018-11-21T14:24:38.882Z,24.57
2018-11-21T14:27:05.544Z,24.69
2018-11-21T14:29:33.479Z,24.58
2018-11-21T14:31:58.934Z,24.61
2018-11-21T14:34:25.569Z,24.60
2018-11-21T14:36:52.219Z,24.59
2018-11-21T14:39:18.858Z,24.58
2018-11-21T14:41:45.505Z,24.59
2018-11-21T14:44:13.294Z,24.49
2018-11-21T14:46:39.942Z,24.51
2018-11-21T14:49:06.614Z,24.54
2018-11-21T14:51:35.374Z,24.56
2018-11-21T14:54:02.204Z,24.51
2018-11-21T14:56:29.341Z,24.47
2018-11-21T14:58:55.598Z,24.55
2018-11-21T15:01:22.253Z,24.53
2018-11-21T15:03:48.925Z,24.69
2018-11-21T15:06:15.579Z,24.55
2018-11-21T15:08:42.272Z,24.45
2018-11-21T15:11:08.973Z,24.53
2018-11-21T15:13:35.644Z,24.39
2018-11-21T15:16:02.298Z,24.40
2018-11-21T15:18:28.958Z,24.41
2018-11-21T15:20:55.623Z,24.39
2018-11-21T15:23:22.263Z,24.38
2018-11-21T15:25:48.956Z,24.61
2018-11-21T15:28:15.606Z,24.65
2018-11-21T15:30:42.252Z,24.49
2018-11-21T15:33:08.916Z,24.39
2018-11-21T15:35:35.627Z,24.37
2018-11-21T15:38:02.346Z,24.33
2018-11-21T15:40:29.003Z,24.32
2018-11-21T15:42:55.650Z,24.37
2018-11-21T15:45:22.298Z,24.35
2018-11-21T15:47:48.951Z,24.33
2018-11-21T15:50:15.676Z,24.40
2018-11-21T15:52:42.375Z,24.33
2018-11-21T15:55:09.010Z,24.30
2018-11-21T15:57:35.648Z,24.41
2018-11-21T16:00:02.302Z,24.39
2018-11-21T16:02:28.949Z,24.30
2018-11-21T16:04:55.575Z,24.29
2018-11-21T16:07:22.224Z,24.27
2018-11-21T16:09:48.878Z,24.10
2018-11-21T16:12:15.573Z,23.91
2018-11-21T16:14:42.220Z,24.08
2018-11-21T16:17:08.866Z,23.93
2018-11-21T16:19:43.761Z,24.17
2018-11-21T16:22:10.464Z,24.03
2018-11-21T16:24:37.103Z,24.18
2018-11-21T16:27:03.915Z,24.13
2018-11-21T16:29:33.082Z,24.17
2018-11-21T16:31:57.187Z,24.29
2018-11-21T16:34:23.845Z,24.35
2018-11-21T16:36:50.481Z,24.29
2018-11-21T16:39:17.120Z,24.25
2018-11-21T16:41:43.778Z,24.27
2018-11-21T16:44:10.421Z,24.25
2018-11-21T16:46:37.148Z,24.20
2018-11-21T16:49:03.808Z,24.16
2018-11-21T16:51:30.508Z,24.31
2018-11-21T16:53:57.218Z,24.17
2018-11-21T16:56:23.943Z,24.17
2018-11-21T16:58:50.552Z,24.13
2018-11-21T17:01:17.196Z,24.10
2018-11-21T17:03:43.932Z,24.08
2018-11-21T17:06:13.233Z,24.05
2018-11-21T17:08:39.877Z,24.07
2018-11-21T17:11:06.531Z,23.99
2018-11-21T17:13:33.235Z,24.05
2018-11-21T17:15:59.923Z,24.03
2018-11-21T17:18:26.526Z,24.03
2018-11-21T17:20:53.220Z,24.03
2018-11-21T17:23:19.851Z,24.04
2018-11-21T17:25:46.547Z,24.04
2018-11-21T17:28:13.182Z,24.00
2018-11-21T17:30:39.824Z,24.03
2018-11-21T17:33:06.461Z,24.01
2018-11-21T17:35:33.219Z,24.00
2018-11-21T17:38:02.119Z,24.00
2018-11-21T17:40:26.536Z,24.00
2018-11-21T17:42:53.165Z,24.01
2018-11-21T17:45:19.952Z,24.00
2018-11-21T17:47:46.591Z,24.01
2018-11-21T17:50:13.239Z,23.98
2018-11-21T17:52:39.877Z,23.97
2018-11-21T17:55:06.578Z,23.95
2018-11-21T17:57:33.222Z,23.95
2018-11-21T17:59:59.914Z,23.99
2018-11-21T18:02:26.607Z,23.96
2018-11-21T18:04:53.345Z,23.83
2018-11-21T18:07:19.873Z,23.93
2018-11-21T18:09:46.571Z,23.94
2018-11-21T18:12:13.209Z,23.95
2018-11-21T18:14:39.856Z,24.00
2018-11-21T18:17:06.566Z,23.92
2018-11-21T18:19:33.268Z,23.91
2018-11-21T18:21:59.914Z,23.94
2018-11-21T18:24:26.609Z,23.92
2018-11-21T18:26:53.272Z,23.92
2018-11-21T18:29:19.918Z,23.90
2018-11-21T18:31:46.569Z,23.89
2018-11-21T18:34:13.226Z,23.89
2018-11-21T18:36:39.871Z,23.90
2018-11-21T18:39:06.522Z,23.87
2018-11-21T18:41:33.236Z,23.80
2018-11-21T18:43:59.878Z,23.85
2018-11-21T18:46:26.591Z,23.85
2018-11-21T18:48:53.241Z,23.85
2018-11-21T18:51:19.880Z,23.83
2018-11-21T18:53:46.525Z,23.82
2018-11-21T18:56:13.261Z,23.82
2018-11-21T18:58:39.902Z,23.84
2018-11-21T19:01:06.559Z,23.85
2018-11-21T19:03:33.256Z,23.81
2018-11-21T19:05:59.902Z,23.79
2018-11-21T19:08:26.634Z,23.80
2018-11-21T19:10:53.276Z,23.83
2018-11-21T19:13:19.922Z,23.78
2018-11-21T19:15:46.573Z,23.75
2018-11-21T19:18:13.212Z,23.77
2018-11-21T19:20:39.851Z,23.77
2018-11-21T19:23:06.505Z,23.77
2018-11-21T19:25:33.210Z,23.79
2018-11-21T19:27:59.784Z,23.76
2018-11-21T19:30:26.520Z,23.78
2018-11-21T19:32:53.179Z,23.76
2018-11-21T19:35:19.822Z,23.71
2018-11-21T19:37:46.467Z,23.75
2018-11-21T19:40:13.111Z,23.73
2018-11-21T19:42:39.803Z,23.73
2018-11-21T19:45:08.332Z,23.71
2018-11-21T19:47:33.107Z,23.71
2018-11-21T19:49:59.809Z,23.70
2018-11-21T19:52:26.453Z,23.70
2018-11-21T19:54:53.087Z,23.69
2018-11-21T19:57:19.784Z,23.69
2018-11-21T19:59:46.424Z,23.72
2018-11-21T20:02:13.121Z,23.71
2018-11-21T20:04:39.761Z,23.73
2018-11-21T20:07:06.458Z,23.73
2018-11-21T20:09:33.104Z,23.71
2018-11-21T20:11:59.808Z,23.68
2018-11-21T20:14:26.452Z,23.72
2018-11-21T20:16:53.098Z,23.70
2018-11-21T20:19:19.746Z,23.69
2018-11-21T20:21:46.379Z,23.70
2018-11-21T20:24:13.064Z,23.70
2018-11-21T20:26:39.754Z,23.71
2018-11-21T20:29:06.438Z,23.69
2018-11-21T20:31:33.082Z,23.67
2018-11-21T20:33:59.726Z,23.70
2018-11-21T20:36:26.382Z,23.68
2018-11-21T20:38:53.074Z,23.65
2018-11-21T20:41:19.710Z,23.65
2018-11-21T20:43:46.354Z,23.67
2018-11-21T20:46:13.004Z,23.67
2018-11-21T20:48:39.687Z,23.65
2018-11-21T20:51:06.387Z,23.68
2018-11-21T20:53:33.031Z,23.67
2018-11-21T20:55:59.670Z,23.68
2018-11-21T20:58:26.309Z,23.66
2018-11-21T21:00:52.945Z,23.65
2018-11-21T21:03:19.600Z,23.65
2018-11-21T21:05:46.257Z,23.66
2018-11-21T21:08:12.908Z,23.67
2018-11-21T21:10:39.601Z,23.63
2018-11-21T21:13:06.243Z,23.64
2018-11-21T21:15:32.883Z,23.66
2018-11-21T21:17:59.542Z,23.65
2018-11-21T21:20:26.179Z,23.65
2018-11-21T21:22:52.838Z,23.68
2018-11-21T21:25:19.481Z,23.65
2018-11-21T21:27:46.122Z,23.66
2018-11-21T21:30:12.763Z,23.66
2018-11-21T21:32:39.405Z,23.67
2018-11-21T21:35:06.063Z,23.65
2018-11-21T21:37:32.750Z,23.65
2018-11-21T21:39:59.405Z,23.65
2018-11-21T21:42:26.060Z,23.62
2018-11-21T21:44:52.766Z,23.64
2018-11-21T21:47:19.466Z,23.62
2018-11-21T21:49:46.112Z,23.65
2018-11-21T21:52:12.780Z,23.63
2018-11-21T21:54:39.387Z,23.63
2018-11-21T21:57:06.080Z,23.63
2018-11-21T21:59:32.717Z,23.63
2018-11-21T22:01:59.353Z,23.62
2018-11-21T22:04:26.001Z,23.60
2018-11-21T22:06:52.640Z,23.59
2018-11-21T22:09:20.647Z,23.60
2018-11-21T22:11:45.945Z,23.63
2018-11-21T22:14:12.585Z,23.60
2018-11-21T22:16:39.220Z,23.61
2018-11-21T22:19:05.920Z,23.60
2018-11-21T22:21:32.547Z,23.55
2018-11-21T22:23:59.195Z,23.59
2018-11-21T22:26:25.842Z,23.60
2018-11-21T22:28:52.476Z,23.60
2018-11-21T22:31:19.171Z,23.60
2018-11-21T22:33:45.812Z,23.62
2018-11-21T22:36:12.503Z,23.61
2018-11-21T22:38:39.150Z,23.59
2018-11-21T22:41:05.789Z,23.59
2018-11-21T22:43:32.447Z,23.58
2018-11-21T22:45:59.093Z,23.56
2018-11-21T22:48:25.779Z,23.56
2018-11-21T22:50:52.412Z,23.56
2018-11-21T22:53:19.102Z,23.56
2018-11-21T22:55:45.770Z,23.56
2018-11-21T22:58:12.415Z,23.58
2018-11-21T23:00:39.057Z,23.56
2018-11-21T23:03:05.703Z,23.54
2018-11-21T23:05:37.639Z,23.53
2018-11-21T23:07:59.049Z,23.54
2018-11-21T23:10:25.694Z,23.57
2018-11-21T23:12:52.369Z,23.54
2018-11-21T23:15:19.004Z,23.57
2018-11-21T23:17:45.658Z,23.56
2018-11-21T23:20:12.440Z,23.53
2018-11-21T23:22:39.080Z,23.57
2018-11-21T23:25:05.764Z,23.55
2018-11-21T23:27:32.401Z,23.53
2018-11-21T23:29:59.099Z,23.52
2018-11-21T23:32:25.793Z,23.53
2018-11-21T23:34:52.441Z,23.54
2018-11-21T23:37:19.083Z,23.54
2018-11-21T23:39:45.740Z,23.56
2018-11-21T23:42:12.371Z,23.53
2018-11-21T23:44:39.025Z,23.54
2018-11-21T23:47:05.714Z,23.54
2018-11-21T23:49:32.351Z,23.56
2018-11-21T23:51:58.988Z,23.53
2018-11-21T23:54:25.682Z,23.55
2018-11-21T23:57:15.748Z,23.54
2018-11-21T23:59:19.005Z,23.54
